CET,Max TemperatureF,Mean TemperatureF,Min TemperatureF,Max Dew PointF,MeanDew PointF,Min DewpointF,Max Humidity, Mean Humidity, Min Humidity, Max Sea Level PressureIn, Mean Sea Level PressureIn, Min Sea Level PressureIn, Max VisibilityMiles, Mean VisibilityMiles, Min VisibilityMiles, Max Wind SpeedMPH, Mean Wind SpeedMPH, Max Gust SpeedMPH,PrecipitationIn, CloudCover, Events, WindDirDegrees
2012-10-1,57,54,50,54,51,50,100,90,77,30.12,30.08,30.06,11,5,1,9,3,,0.00,7,Rain,271
2012-10-2,63,52,40,50,45,41,100,82,39,30.16,30.11,30.06,12,3,0,9,4,,0.00,2,Fog,173
2012-10-3,67,54,42,51,47,42,100,78,47,30.14,30.06,29.99,16,5,1,13,5,,0.00,4,,181
2012-10-4,65,56,46,52,49,46,100,82,51,30.13,29.98,29.86,17,5,1,22,8,31,0.20,7,Rain,204
2012-10-5,67,54,40,56,48,41,100,81,51,30.17,30.06,29.96,18,5,1,18,7,,0.00,2,Fog,196
2012-10-6,71,58,45,52,49,45,100,70,39,30.09,30.02,29.92,19,4,1,22,8,31,0.00,8,Rain,203
2012-10-7,58,50,42,57,50,39,100,90,62,30.25,30.04,29.88,19,5,1,21,7,26,0.20,6,Rain,271
2012-10-8,56,44,32,48,41,34,100,85,51,30.29,30.14,29.95,12,3,0,7,3,,0.01,2,Fog,109
2012-10-9,58,52,45,57,52,45,100,98,90,30.01,29.89,29.80,12,4,1,12,5,,0.24,8,Rain,307
2012-10-10,51,45,39,48,44,39,100,91,66,30.03,29.96,29.92,12,4,0,8,3,,0.02,7,Fog-Rain,83
2012-10-11,55,46,37,48,43,37,100,85,62,30.04,29.91,29.83,12,5,1,12,4,,0.00,5,Fog,94
2012-10-12,60,52,45,57,51,45,100,94,77,30.04,29.85,29.79,19,4,1,15,6,29,0.24,7,Rain-Thunderstorm,193
2012-10-13,55,46,37,46,42,37,100,85,55,30.10,29.95,29.80,19,4,0,11,4,,0.00,2,Fog,127
2012-10-14,58,48,39,47,43,40,100,80,53,29.85,29.67,29.50,19,3,1,7,4,,0.00,8,Fog-Rain,134
2012-10-15,47,44,41,46,41,37,100,84,64,29.96,29.74,29.50,19,6,1,16,7,,0.04,7,Rain,232
2012-10-16,54,46,37,43,39,36,100,75,47,29.98,29.93,29.89,12,5,1,9,4,,0.00,5,Fog-Rain,209
2012-10-17,65,54,43,49,44,39,100,75,46,30.02,29.97,29.93,19,6,1,9,4,,0.00,8,Rain,122
2012-10-18,63,50,36,53,46,37,100,88,57,30.05,29.98,29.93,19,4,0,7,3,,0.00,8,Fog,51
2012-10-19,65,52,39,55,48,41,100,90,59,30.07,30.02,29.94,12,3,0,9,3,,0.00,,Fog,14
2012-10-20,60,50,41,56,49,44,100,97,72,30.17,30.11,30.06,6,1,0,9,3,,0.00,6,Fog,72
2012-10-21,52,48,45,52,48,46,100,98,88,30.15,30.09,30.06,4,1,0,7,4,,0.00,8,Fog-Rain,99
2012-10-22,47,46,44,47,46,44,100,98,88,30.27,30.18,30.12,4,2,0,7,5,,0.00,8,Fog-Rain,70
2012-10-23,47,46,44,45,44,42,100,94,85,30.28,30.23,30.21,6,3,1,9,5,,0.00,8,Rain,72
2012-10-24,51,46,41,46,44,40,100,88,70,30.24,30.13,30.06,6,3,1,7,4,,0.00,8,,106
2012-10-25,56,48,41,46,43,41,100,83,53,30.10,29.99,29.89,10,3,1,7,3,,0.00,7,,201
2012-10-26,47,42,37,46,43,37,100,91,75,29.92,29.72,29.42,10,3,0,12,5,,0.00,8,Fog,67
2012-10-27,39,34,30,43,36,28,100,97,85,29.76,29.44,29.24,5,2,1,13,8,,0.28,8,Rain-Snow,7
2012-10-28,33,30,28,32,30,28,100,95,86,30.02,29.85,29.74,11,3,0,14,8,,0.01,7,Rain-Snow,32
2012-10-29,33,30,28,30,28,25,100,89,70,30.10,30.00,29.89,11,4,1,9,5,,0.00,7,Rain-Snow,268
2012-10-30,44,36,27,35,31,28,100,84,59,29.96,29.80,29.71,19,5,1,16,6,,0.00,7,Snow,195
2012-10-31,48,37,26,38,33,27,100,85,57,29.82,29.61,29.36,16,4,1,11,4,,0.00,8,Fog,97